Western, Illinois
Current Conditions -  °F | °C
As of 8:52 PM on Saturday 20 Dec 2014 (Local Time) from KMLI Reporting Station
Haze Haze  
Wind Chill: 28°   Ceiling: 2000
Heat Index: 33°   Visibility: 6mi
Dew Point: 29°   Wind: 6mph
Humidity: 85%   Direction: 160°SSE
Pressure: 30.2"   Gusts: NA
Location:  41.3669°N, 90.3966°W
Report Text: KMLI 210252Z 16005KT 6SM BR BKN020 OVC035 01/M02 A3020 RMK AO2 SLP234 T00061017 58003
Loading
Personal Weather Stations






























Interactive Weather Map New forecast layout! Learn more

10-Day Weather Forecast

Advertisements
Track Severe Weather on mobile